Historyczne dane pomiarowe

Dodano dane terminowe – wersja testowa.

Dane z okresu 1951-2019

Wersja bazy: 1.34 [2019-03-16, lista zmian], aktualizacja planowana na 2019-04-15

Dane meteo z obszaru Polski uzyskane na podstawie danych udostępnionych przez Instytut Meteorologii i Gospodarki Wodnej – Państwowy Instytut Badawczy.

 

Wybierz Datę:    

       

TemperaturaWilgotnośćWiatrCiśnienieOpadyŚniegCzas trwania zjawisk
 Stacja t tx tn tng RH VA  wxwx mslp ppp RRR   cm mm wxwxwxwxwxwxwx
1956-11-09 -4.6 0.1 -6.6 -8.5 82.5- 1.7 0.7---- 0.0------------
1956-11-08 -2.4 0.1 -6.0 -8.2 84.3- 3.3 2.7---- 0.0------------
1956-11-07 -1.8 2.1 -4.1 -3.1 91.5- 2.3 7.0---- 0.3------------
1956-11-06 1.2 3.2 0.2 -1.7 80.5- 2.7 10.7---- 0.4------------
1956-11-05 1.4 6.0 -0.5 -1.3 98.8- 8.0 7.3---- 0.4------------
1956-11-04 0.6 3.5 -5.0 -5.1 82.5- 3.0 3.7---- 0.0------------
1956-11-03 0.0 2.0 -3.0 -6.1 91.0- 7.7 1.3---- 0.0------------
1956-11-02 -0.3 3.5 -1.5 -1.6 90.3- 4.7 1.3---- 0.0------------
1956-11-01 -1.0 1.0 -6.0 -8.0 85.8- 7.7 8.7---- 0.0------------
1956-10-31 -5.4 -2.0 -8.8-10.5 80.8- 0.0 1.7---- 0.0------------
1956-10-30 -2.0 2.4 -3.5 -0.8 91.3- 8.0 6.7---- 0.0------------
1956-10-29 4.6 9.5 2.2 2.4 83.3- 5.3 3.3---- 0.0------------
1956-10-28 8.6 9.3 8.3 7.5 97.0- 8.0 6.0---- 12.8------------
1956-10-27 9.2 10.7 6.9 6.3 93.3- 8.0 6.3---- 0.7------------
1956-10-26 8.0 10.6 7.4 5.3 93.5- 8.0 4.0---- 1.1------------
1956-10-25 10.2 13.5 7.1 3.1 88.0- 5.7 4.3---- 0.0------------
1956-10-24 10.3 12.5 5.4 2.9 90.5- 5.0 4.0---- 0.0------------
1956-10-23 9.0 11.2 7.6 8.3 83.8- 7.3 4.3---- 0.0------------
1956-10-22 10.9 12.0 9.4 7.3 88.3- 8.0 5.0---- 0.0------------
1956-10-21 11.5 15.9 5.9 2.9 88.0- 0.7 3.7---- 0.0------------
1956-10-20 9.0 10.5 6.1 3.5 94.0- 5.3 4.0---- 0.0------------
1956-10-19 10.0 13.4 7.9 8.9 93.8- 7.3 4.3---- 1.1------------
1956-10-18 9.0 11.2 3.2 0.5 94.0- 8.0 2.3---- 1.6------------
1956-10-17 5.9 12.0 0.4 -2.5 79.5- 0.0 3.3---- 0.0------------
1956-10-16 6.3 11.3 -0.8 -4.2 84.8- 4.0 2.0---- 0.0------------
1956-10-15 4.4 11.8 1.2 -1.0 84.5- 1.0 3.0---- 0.0------------
1956-10-14 6.8 11.0 4.5 4.1 75.8- 1.0 9.7---- 0.0------------
1956-10-13 10.1 11.7 8.3 6.3 78.3- 7.3 16.0---- 6.8------------
1956-10-12 9.6 11.3 8.5 7.3 84.3- 5.7 8.0---- 0.0------------
1956-10-11 8.5 11.4 5.0 3.4 80.8- 6.0 7.3---- 0.5------------
1956-10-10 4.5 9.0 -1.3 -4.5 81.5- 4.0 4.0---- 0.0------------
1956-10-09 5.3 7.7 1.2 -1.0 89.8- 3.0 4.3---- 0.2------------
1956-10-08 5.7 7.5 4.1 2.1 88.3- 7.7 2.7---- 1.0------------
1956-10-07 6.8 8.0 5.0 2.8 85.5- 8.0 14.0---- 0.0------------
1956-10-06 6.1 9.0 4.0 1.0 96.3- 8.0 5.3---- 37.5------------
1956-10-05 9.6 13.9 7.9 7.3 86.5- 6.3 2.0---- 0.0------------
1956-10-04 9.4 12.9 3.0 1.0 93.3- 4.7 2.3---- 0.0------------
1956-10-03 12.6 18.2 8.4 10.3 82.5- 4.7 6.7---- 0.6------------
1956-10-02 16.6 24.2 6.3 4.0 76.8- 0.3 4.7---- 0.0------------
1956-10-01 14.3 22.2 3.3 0.8 84.0- 3.3 3.0---- 0.0------------
1956-09-30 11.2 17.6 8.1 7.6 87.0- 4.0 3.7---- 0.0------------
1956-09-29 16.1 20.4 13.5 11.8 75.0- 6.0 7.3---- 0.0------------
1956-09-28 14.0 18.5 10.1 6.6 82.0- 4.0 4.7---- 0.0------------
1956-09-27 15.0 23.5 5.9 3.4 74.0- 2.0 6.3---- 0.0------------
1956-09-26 12.0 21.9 3.6 1.4 78.5- 0.0 3.3---- 0.0------------
1956-09-25 9.1 18.1 0.0 -3.0 78.8- 0.0 3.0---- 0.0------------
1956-09-24 6.6 15.6 1.5 -1.1 74.3- 0.0 3.7---- 0.0------------
1956-09-23 9.2 17.1 5.0 1.5 81.5- 1.7 4.3---- 0.0------------
1956-09-22 9.6 19.5 2.5 0.1 83.5- 0.0 2.0---- 0.0------------
1956-09-21 9.6 18.6 1.5 -0.5 80.0- 0.0 1.0---- 0.0------------
1956-09-20 8.2 17.7 2.0 -0.5 82.8- 2.0 2.0---- 0.0------------
1956-09-19 7.6 15.5 0.0 -1.5 80.3- 1.7 1.7---- 0.0------------
1956-09-18 7.8 14.5 4.0 1.9 85.3- 1.7 4.0---- 0.0------------
1956-09-17 9.2 14.6 6.4 4.4 74.3- 3.7 6.7---- 0.0------------
1956-09-16 10.2 13.8 5.8 3.4 76.3- 6.0 8.7---- 0.0------------
1956-09-15 9.7 15.0 6.1 3.4 89.0- 5.0 3.3---- 0.0------------
1956-09-14 9.4 15.5 5.5 2.9 87.8- 1.3 3.0---- 0.0------------
1956-09-13 8.8 14.5 6.7 5.3 86.5- 3.7 5.3---- 0.8------------
1956-09-12 11.4 16.0 8.5 9.3 86.8- 4.7 4.7---- 5.4------------
1956-09-11 12.6 15.0 11.4 11.4 97.0- 6.7 1.7---- 13.5------------
346.5 ms

 

Źródłem pochodzenia danych jest Instytut Meteorologii i Gospodarki Wodnej – Państwowy Instytut Badawczy. Dane Instytutu Meteorologii i Gospodarki Wodnej – Państwowego Instytutu Badawczego zostały przetworzone.

Dane źródłowe można odnaleźć na stronie https://dane.imgw.pl